»·PEaware :: N522PM KEUG-KPDX

N522PM :: KEUG-KPDX

FLIGHT INFORMATION

Flight Status: Arrived
Operator: Privately registered:
United States
More flights under this callsign
Pilot: Bruce B. (6887)
Aircraft: BEECH AIRCRAFT BONANZA
(BE36)
More flights by this aircraft type
Origin: KEUG Mahlon Sweet
United States
Destination: KPDX Portland Intl
United States
More flights between these airports :: More routes between these airports
Route: EUG9 EUG V448 BTG
File this flight plan on PilotEdge
Remarks:
Altitude:
(Current/Filed)
9,000ft
Speed:
(Current/Filed)
160kts
Departed: 09-Jan-18 04:30 PM
Arrived: 09-Jan-18 05:24 PM
Distance/Time
Traveled:
92nm/0:54
Distance/Time
To Go:
Arrived

Flight Plot

Page will automatically refresh every two minutes.

Flight plan parsing failed; only flown route is shown


Map Options




Map Legend


Flown Route
Filed Route
Departure Airport
Arrival Airport
Navaid (VOR, NDB)
Fix

Horizontal Profiles

Position Reports

Time Latitude Longitude Heading Altitude Ground
Speed
09-Jan-18 16:21 44.124563 -123.210372 120 373ft 0kts
09-Jan-18 16:22 44.124563 -123.210372 120 373ft 0kts
09-Jan-18 16:23 44.124563 -123.210372 120 373ft 0kts
09-Jan-18 16:24 44.124563 -123.210372 120 373ft 0kts
09-Jan-18 16:25 44.124563 -123.210372 120 373ft 0kts
09-Jan-18 16:26 44.124563 -123.210372 120 373ft 0kts
09-Jan-18 16:27 44.124563 -123.210372 120 373ft 0kts
09-Jan-18 16:28 44.124563 -123.210372 120 373ft 0kts
09-Jan-18 16:29 44.124563 -123.210372 120 373ft 0kts
09-Jan-18 16:30 44.124707 -123.210276 305 373ft 10kts
09-Jan-18 16:31 44.125894 -123.206297 94 373ft 17kts
09-Jan-18 16:32 44.129716 -123.204379 357 373ft 23kts
09-Jan-18 16:33 44.132814 -123.203789 86 373ft 0kts
09-Jan-18 16:34 44.132814 -123.203788 86 373ft 0kts
09-Jan-18 16:35 44.132782 -123.202939 147 373ft 9kts
09-Jan-18 16:36 44.116071 -123.201393 180 821ft 109kts
09-Jan-18 16:37 44.085157 -123.196297 177 2314ft 113kts
09-Jan-18 16:38 44.051181 -123.188299 170 3431ft 128kts
09-Jan-18 16:39 44.039847 -123.142699 93 4499ft 131kts
09-Jan-18 16:40 44.048213 -123.099095 10 5507ft 117kts
09-Jan-18 16:41 44.078986 -123.084648 11 6464ft 117kts
09-Jan-18 16:42 44.109417 -123.069310 11 7321ft 114kts
09-Jan-18 16:43 44.137960 -123.054874 9 7888ft 109kts
09-Jan-18 16:44 44.167979 -123.039826 10 8611ft 115kts
09-Jan-18 16:45 44.201462 -123.022999 12 9022ft 146kts
09-Jan-18 16:46 44.242994 -123.001725 13 8999ft 164kts
09-Jan-18 16:47 44.286010 -122.979804 13 8998ft 164kts
09-Jan-18 16:48 44.328850 -122.958054 13 8999ft 164kts
09-Jan-18 16:49 44.371837 -122.936193 13 8999ft 164kts
09-Jan-18 16:50 44.414672 -122.914375 13 8998ft 164kts
09-Jan-18 16:51 44.457514 -122.892517 13 8998ft 164kts
09-Jan-18 16:52 44.500520 -122.870545 13 8997ft 164kts
09-Jan-18 16:53 44.542369 -122.849120 12 9150ft 160kts
09-Jan-18 16:54 44.584905 -122.827383 12 9145ft 163kts
09-Jan-18 16:55 44.627693 -122.805395 12 9140ft 164kts
09-Jan-18 16:56 44.669284 -122.778609 23 9138ft 167kts
09-Jan-18 16:57 44.709664 -122.745391 23 9134ft 167kts
09-Jan-18 16:58 44.749930 -122.712332 23 9130ft 167kts
09-Jan-18 16:59 44.790266 -122.679147 23 9129ft 167kts
09-Jan-18 17:00 44.830455 -122.646036 23 9127ft 167kts
09-Jan-18 17:01 44.870872 -122.613877 9 9123ft 162kts
09-Jan-18 17:02 44.914476 -122.612122 353 9118ft 156kts
09-Jan-18 17:03 44.958031 -122.611020 353 9116ft 156kts
09-Jan-18 17:04 45.001478 -122.609943 353 9116ft 156kts
09-Jan-18 17:05 45.037797 -122.609063 353 9116ft 156kts
09-Jan-18 17:06 45.088410 -122.607826 353 9115ft 156kts
09-Jan-18 17:07 45.124730 -122.606925 353 9115ft 156kts
09-Jan-18 17:08 45.175327 -122.605687 352 9115ft 155kts
09-Jan-18 17:09 45.211371 -122.604810 352 9115ft 155kts
09-Jan-18 17:10 45.261943 -122.603574 352 9114ft 155kts
09-Jan-18 17:11 45.297908 -122.602692 352 9112ft 155kts
09-Jan-18 17:12 45.348382 -122.601455 352 9111ft 155kts
09-Jan-18 17:13 45.384328 -122.600569 353 9109ft 155kts
09-Jan-18 17:14 45.427817 -122.599517 353 8787ft 157kts
09-Jan-18 17:15 45.470159 -122.598639 346 8103ft 146kts
09-Jan-18 17:16 45.492023 -122.639145 297 6955ft 139kts
09-Jan-18 17:17 45.510169 -122.686481 297 5589ft 133kts
09-Jan-18 17:18 45.526563 -122.731242 296 4897ft 125kts
09-Jan-18 17:19 45.543620 -122.777820 297 4002ft 127kts
09-Jan-18 17:20 45.559109 -122.820224 296 4018ft 119kts
09-Jan-18 17:21 45.581639 -122.848288 16 4088ft 130kts
09-Jan-18 17:22 45.613028 -122.818616 27 3773ft 123kts
09-Jan-18 17:23 45.640315 -122.801349 17 2745ft 101kts
09-Jan-18 17:24 45.653979 -122.775075 96 2502ft 93kts
09-Jan-18 17:25 45.645175 -122.739092 99 2064ft 103kts
09-Jan-18 17:26 45.636406 -122.702225 117 1765ft 98kts
09-Jan-18 17:27 45.623167 -122.666856 127 1222ft 100kts
09-Jan-18 17:28 45.609558 -122.633223 120 649ft 93kts
09-Jan-18 17:29 45.597105 -122.601337 118 165ft 88kts
09-Jan-18 17:30 45.590409 -122.584373 118 22ft 34kts
09-Jan-18 17:31 45.588631 -122.582134 222 22ft 0kts
09-Jan-18 17:32 45.587024 -122.582532 120 22ft 0kts
09-Jan-18 17:33 45.587024 -122.582532 120 22ft 0kts

Navigation Log

Ident Type
Flight plan parsing failed, navigation log unavailable